Time;durP1;ratioP1;P1;durP2;ratioP2;P2;SDS_P1;SDS_P2;PMS_P1;PMS_P2;Temp;Humidity;BMP_temperature;BMP_pressure;BME280_temperature;BME280_humidity;BME280_pressure;Samples;Min_cycle;Max_cycle;Signal;HPM_P1;HPM_P2
2022/08/25 00:01:24;;;;;;;3.58;2.20;;;;;;;-148.88;45.64;74822.66;4996807;28;20022;-84
2022/08/25 00:03:51;;;;;;;4.00;2.40;;;;;;;-148.88;46.06;74834.84;4998943;28;20057;-83
2022/08/25 00:06:16;;;;;;;3.38;2.08;;;;;;;-148.88;45.83;74830.78;4995894;28;20023;-82
2022/08/25 00:08:42;;;;;;;5.47;2.30;;;;;;;-148.88;46.38;74834.84;4996974;28;20381;-83
2022/08/25 00:11:16;;;;;;;3.83;2.30;;;;;;;-148.88;46.50;74838.91;4997413;28;20026;-83
2022/08/25 00:13:43;;;;;;;6.13;2.55;;;;;;;-148.88;46.41;74842.97;4995907;28;20027;-83
2022/08/25 00:16:15;;;;;;;6.60;2.70;;;;;;;-148.88;46.36;74842.97;4997219;28;20038;-83
2022/08/25 00:18:43;;;;;;;4.45;2.50;;;;;;;-148.88;46.58;74855.16;4995310;28;20085;-83
2022/08/25 00:21:09;;;;;;;5.65;2.42;;;;;;;-148.88;46.26;74855.16;4996850;28;20057;-83
2022/08/25 00:23:34;;;;;;;7.70;2.58;;;;;;;-148.88;46.28;74875.47;4996524;28;20054;-83
2022/08/25 00:26:00;;;;;;;3.75;2.10;;;;;;;-148.88;46.40;74869.38;4995273;28;20105;-83
2022/08/25 00:28:26;;;;;;;4.57;2.70;;;;;;;-148.88;46.38;74867.34;4995038;28;20030;-83
2022/08/25 00:30:51;;;;;;;5.22;2.10;;;;;;;-148.88;46.53;74871.41;4995385;28;20030;-83
2022/08/25 00:33:17;;;;;;;4.20;2.35;;;;;;;-148.88;46.63;74871.41;4995274;28;20044;-83
2022/08/25 00:35:43;;;;;;;4.10;2.30;;;;;;;-148.88;46.72;74881.56;4995458;28;20077;-83
2022/08/25 00:38:10;;;;;;;5.32;2.28;;;;;;;-148.88;46.93;74883.59;4996888;28;20029;-83
2022/08/25 00:40:38;;;;;;;3.35;2.10;;;;;;;-148.88;47.12;74891.72;4996369;28;20069;-83
2022/08/25 00:43:05;;;;;;;5.45;2.30;;;;;;;-148.88;47.45;74889.69;4995003;28;20616;-82
2022/08/25 00:45:31;;;;;;;4.40;2.13;;;;;;;-148.88;47.50;74901.88;4996504;28;20038;-83
2022/08/25 00:47:57;;;;;;;5.95;2.10;;;;;;;-148.88;47.65;74912.03;4996282;28;20094;-83
2022/08/25 00:50:23;;;;;;;3.95;2.30;;;;;;;-148.88;47.63;74910.00;4995103;28;20506;-83
2022/08/25 00:52:52;;;;;;;6.47;2.60;;;;;;;-148.88;47.86;74918.13;4995352;28;20045;-83
2022/08/25 00:55:28;;;;;;;5.47;2.30;;;;;;;-148.88;47.82;74914.06;4995975;28;20055;-83
2022/08/25 00:58:12;;;;;;;5.00;2.47;;;;;;;-148.88;48.43;74924.22;4994299;28;20026;-83
2022/08/25 01:00:44;;;;;;;6.22;2.50;;;;;;;-148.88;48.40;74930.31;4996182;28;20485;-82
2022/08/25 01:03:11;;;;;;;3.97;2.28;;;;;;;-148.88;48.48;74936.41;4996257;28;20117;-83
2022/08/25 01:05:38;;;;;;;5.40;2.30;;;;;;;-148.88;48.52;74942.47;4996441;28;20038;-82
2022/08/25 01:08:06;;;;;;;5.70;2.50;;;;;;;-148.88;48.74;74948.56;4994711;28;20571;-83
2022/08/25 01:10:40;;;;;;;4.85;2.38;;;;;;;-148.88;49.19;74946.53;4994557;28;20091;-83
2022/08/25 01:13:12;;;;;;;5.55;2.40;;;;;;;-148.88;48.79;74948.56;4995999;28;20459;-83
2022/08/25 01:15:37;;;;;;;5.05;2.75;;;;;;;-148.88;49.20;74952.63;4996236;28;20049;-83
2022/08/25 01:18:03;;;;;;;3.92;2.50;;;;;;;-148.88;48.98;74952.63;4995374;28;20113;-83
2022/08/25 01:20:31;;;;;;;4.72;2.83;;;;;;;-148.88;49.28;74956.69;4996500;28;20030;-83
2022/08/25 01:22:58;;;;;;;8.25;3.28;;;;;;;-148.88;49.79;74966.84;4995918;28;20032;-83
2022/08/25 01:25:35;;;;;;;6.50;3.20;;;;;;;-148.88;50.01;74974.97;4997279;28;20026;-83
2022/08/25 01:28:01;;;;;;;4.88;2.88;;;;;;;-148.88;50.20;74981.06;4997583;28;20057;-83
2022/08/25 01:30:26;;;;;;;8.30;3.00;;;;;;;-148.88;50.01;74989.19;4996127;28;20027;-83
2022/08/25 01:32:52;;;;;;;5.97;3.00;;;;;;;-148.88;49.91;74989.19;4997342;28;20389;-83
2022/08/25 01:35:17;;;;;;;6.97;2.83;;;;;;;-148.88;49.95;74989.19;4996362;28;20068;-82
2022/08/25 01:37:43;;;;;;;4.05;2.40;;;;;;;-148.88;50.21;74995.28;4995259;28;20045;-83
2022/08/25 01:40:09;;;;;;;8.02;2.63;;;;;;;-148.88;50.36;74999.34;4998307;28;20022;-83
2022/08/25 01:42:45;;;;;;;4.95;2.40;;;;;;;-148.88;50.33;75001.38;4995446;28;20030;-82
2022/08/25 01:45:10;;;;;;;5.78;2.60;;;;;;;-148.88;50.51;75003.41;4995087;28;20026;-83
2022/08/25 01:47:36;;;;;;;8.07;2.85;;;;;;;-148.88;50.87;75009.50;4994564;28;20033;-84
2022/08/25 01:50:04;;;;;;;5.70;2.45;;;;;;;-148.88;51.07;75009.50;4993451;28;20094;-83
2022/08/25 01:52:55;;;;;;;4.75;2.30;;;;;;;-148.88;50.94;75013.56;4993803;28;20463;-82
2022/08/25 01:55:21;;;;;;;5.80;2.70;;;;;;;-148.88;51.06;75029.81;4985263;28;20039;-82
2022/08/25 01:57:47;;;;;;;4.68;2.50;;;;;;;-148.88;50.82;75029.81;4993629;28;20030;-82
2022/08/25 02:00:14;;;;;;;5.97;2.60;;;;;;;-148.88;51.18;75029.81;4996222;28;20030;-83
2022/08/25 02:02:41;;;;;;;4.88;2.60;;;;;;;-148.88;51.83;75046.06;4994864;28;20126;-83
2022/08/25 02:05:07;;;;;;;4.57;2.50;;;;;;;-148.88;51.92;75046.06;4995023;28;20025;-83
2022/08/25 02:07:33;;;;;;;5.43;2.20;;;;;;;-148.88;52.04;75039.97;4993619;28;20082;-84
2022/08/25 02:09:58;;;;;;;5.25;2.20;;;;;;;-148.88;51.81;75046.06;4995665;28;20456;-83
2022/08/25 02:12:24;;;;;;;3.40;2.15;;;;;;;-148.88;52.12;75046.06;4995101;28;20080;-82
2022/08/25 02:14:49;;;;;;;7.70;2.90;;;;;;;-148.88;52.34;75054.19;4995293;28;20105;-82
2022/08/25 02:17:16;;;;;;;6.22;2.80;;;;;;;-148.88;51.86;75062.31;4994933;28;20430;-83
2022/08/25 02:19:41;;;;;;;4.18;2.20;;;;;;;-148.88;52.11;75060.28;4994948;28;20065;-83
2022/08/25 02:22:07;;;;;;;5.05;2.55;;;;;;;-148.88;52.63;75060.28;4993543;28;20122;-82
2022/08/25 02:24:32;;;;;;;4.75;2.70;;;;;;;-148.88;52.31;75068.41;4995169;28;20023;-83
2022/08/25 02:26:58;;;;;;;10.55;3.08;;;;;;;-148.88;52.61;75070.44;4995410;28;20037;-83
2022/08/25 02:29:23;;;;;;;4.47;2.70;;;;;;;-148.88;52.90;75070.44;4994159;28;20030;-82
2022/08/25 02:31:49;;;;;;;5.25;3.10;;;;;;;-148.88;52.85;75076.53;4994822;28;20485;-82
2022/08/25 02:34:15;;;;;;;8.23;3.28;;;;;;;-148.88;53.31;75078.56;4994531;28;20061;-83
2022/08/25 02:36:40;;;;;;;5.72;3.30;;;;;;;-148.88;53.19;75076.53;4995104;28;20026;-83
2022/08/25 02:39:07;;;;;;;7.53;3.42;;;;;;;-148.88;53.41;75082.63;4996028;28;20030;-83
2022/08/25 02:41:33;;;;;;;5.25;3.30;;;;;;;-148.88;53.75;75090.72;4995851;28;20044;-83
2022/08/25 02:44:00;;;;;;;5.60;3.08;;;;;;;-148.88;53.89;75088.72;4994968;28;20032;-83
2022/08/25 02:46:26;;;;;;;5.68;3.10;;;;;;;-148.88;53.78;75094.81;4994451;28;20022;-83
2022/08/25 02:48:52;;;;;;;7.00;3.13;;;;;;;-148.88;53.84;75088.72;4995184;28;20536;-84
2022/08/25 02:51:18;;;;;;;4.78;3.15;;;;;;;-148.88;54.04;75082.63;4994951;28;20422;-83
2022/08/25 02:53:45;;;;;;;7.50;3.53;;;;;;;-148.88;53.97;75078.56;4995008;28;20109;-84
2022/08/25 02:56:12;;;;;;;5.35;3.05;;;;;;;-148.88;54.04;75098.84;4994079;28;20034;-83
2022/08/25 02:58:39;;;;;;;4.97;3.03;;;;;;;-148.88;53.87;75100.88;4994273;28;20026;-83
2022/08/25 03:01:06;;;;;;;4.43;3.17;;;;;;;-148.88;53.88;75113.06;4994187;28;20030;-83
2022/08/25 03:03:32;;;;;;;5.18;3.00;;;;;;;-148.88;54.19;75119.16;4994633;28;20094;-83
2022/08/25 03:05:58;;;;;;;7.78;3.45;;;;;;;-148.88;54.99;75123.22;4994727;28;20041;-83
2022/08/25 03:08:24;;;;;;;7.70;3.85;;;;;;;-148.88;55.32;75125.25;4994088;28;20026;-83
2022/08/25 03:10:50;;;;;;;5.45;3.17;;;;;;;-148.88;55.53;75131.34;4993627;28;20026;-83
2022/08/25 03:13:16;;;;;;;6.18;3.22;;;;;;;-148.88;55.63;75131.34;4994015;28;20388;-84
2022/08/25 03:15:41;;;;;;;8.88;3.65;;;;;;;-148.88;55.69;75135.41;4995664;28;20029;-83
2022/08/25 03:18:07;;;;;;;6.25;3.30;;;;;;;-148.88;55.54;75137.44;4993359;28;20018;-84
2022/08/25 03:20:34;;;;;;;6.97;3.83;;;;;;;-148.88;55.34;75145.56;4995089;28;20040;-84
2022/08/25 03:23:00;;;;;;;10.20;3.88;;;;;;;-148.88;55.64;75153.69;4994615;28;20026;-83
2022/08/25 03:28:09;;;;;;;;;;;;;;;-148.88;56.37;75147.59;4995510;28;20040;-83
2022/08/25 03:30:35;;;;;;;6.15;3.58;;;;;;;-148.88;56.09;75163.84;4994510;28;20008;-84
2022/08/25 03:33:00;;;;;;;8.85;4.45;;;;;;;-148.88;56.63;75159.78;4997218;28;20034;-83
2022/08/25 03:35:25;;;;;;;6.47;3.70;;;;;;;-148.88;57.00;75163.84;4996040;28;20018;-83
2022/08/25 03:37:55;;;;;;;6.68;4.07;;;;;;;-148.88;57.09;75167.91;4996912;28;20038;-83
2022/08/25 03:40:22;;;;;;;7.35;3.53;;;;;;;-148.88;56.95;75165.88;4997685;28;20112;-83
2022/08/25 03:42:47;;;;;;;6.72;3.65;;;;;;;-148.88;57.01;75171.97;4997181;28;20385;-83
2022/08/25 03:45:15;;;;;;;7.15;3.85;;;;;;;-148.88;57.39;75171.97;4997879;28;20026;-83
2022/08/25 03:47:41;;;;;;;5.78;3.60;;;;;;;-148.88;57.29;75178.06;4996999;28;20023;-82
2022/08/25 03:50:08;;;;;;;7.18;3.78;;;;;;;-148.88;57.62;75176.03;4996316;28;20096;-82
2022/08/25 03:52:35;;;;;;;6.55;4.05;;;;;;;-148.88;57.70;75176.03;4997006;28;20050;-83
2022/08/25 03:55:02;;;;;;;9.18;3.83;;;;;;;-148.88;57.54;75178.06;4998605;28;20030;-82
2022/08/25 03:57:28;;;;;;;6.75;3.50;;;;;;;-148.88;58.06;75176.03;4998036;28;20034;-84
2022/08/25 03:59:53;;;;;;;5.50;3.50;;;;;;;-148.88;58.05;75176.03;4997103;28;20172;-82
2022/08/25 04:02:18;;;;;;;5.97;3.67;;;;;;;-148.88;57.82;75169.94;4998270;28;20473;-83
2022/08/25 04:04:44;;;;;;;6.75;3.83;;;;;;;-148.88;58.11;75176.03;4998705;28;20105;-82
2022/08/25 04:07:09;;;;;;;6.65;3.50;;;;;;;-148.88;58.19;75182.13;5000315;28;20026;-83
2022/08/25 04:09:34;;;;;;;7.35;3.53;;;;;;;-148.88;58.46;75182.13;4996955;28;20023;-83
2022/08/25 04:12:00;;;;;;;6.82;3.47;;;;;;;-148.88;58.52;75188.22;4998111;28;20053;-82
2022/08/25 04:14:25;;;;;;;6.00;3.80;;;;;;;-148.88;58.54;75186.19;4997679;28;20030;-82
2022/08/25 04:16:51;;;;;;;7.13;3.80;;;;;;;-148.88;58.83;75194.31;4997173;28;20526;-82
2022/08/25 04:19:17;;;;;;;8.05;3.55;;;;;;;-148.88;58.88;75194.31;4997942;28;20028;-82
2022/08/25 04:21:42;;;;;;;5.90;3.90;;;;;;;-148.88;59.47;75202.44;4997814;28;20212;-82
2022/08/25 04:24:12;;;;;;;8.48;3.70;;;;;;;-148.88;59.64;75206.50;4996375;28;20026;-84
2022/08/25 04:26:41;;;;;;;6.25;3.58;;;;;;;-148.88;59.88;75212.59;4998528;28;20101;-83
2022/08/25 04:29:08;;;;;;;5.70;3.50;;;;;;;-148.88;60.28;75222.75;5002836;28;20093;-83
2022/08/25 04:31:34;;;;;;;7.50;3.90;;;;;;;-148.88;60.46;75228.84;5001449;28;20430;-83
2022/08/25 04:34:03;;;;;;;5.00;3.47;;;;;;;-148.88;61.09;75241.03;5001253;28;20053;-84
2022/08/25 04:36:29;;;;;;;6.60;3.70;;;;;;;-148.88;61.17;75241.03;5001152;28;20080;-84
2022/08/25 04:38:54;;;;;;;6.13;3.80;;;;;;;-148.88;61.23;75241.03;5001378;28;20054;-84
2022/08/25 04:41:23;;;;;;;5.50;3.80;;;;;;;-148.88;61.34;75241.03;5000048;28;20120;-85
2022/08/25 04:43:49;;;;;;;6.35;3.65;;;;;;;-148.88;61.64;75236.97;4998845;28;20547;-83
2022/08/25 04:46:17;;;;;;;6.35;3.83;;;;;;;-148.88;61.54;75241.03;4996799;28;20027;-82
2022/08/25 04:48:43;;;;;;;9.15;3.95;;;;;;;-148.88;61.67;75245.09;4998915;28;20023;-82
2022/08/25 04:51:12;;;;;;;5.70;3.78;;;;;;;-148.88;62.14;75245.09;4997806;28;20032;-83
2022/08/25 04:53:38;;;;;;;7.28;3.63;;;;;;;-148.88;62.42;75245.09;4998095;28;20437;-83
2022/08/25 04:56:09;;;;;;;7.05;3.90;;;;;;;-148.88;62.18;75232.91;4997434;28;20042;-83
2022/08/25 04:58:35;;;;;;;6.07;3.85;;;;;;;-148.88;62.30;75236.97;4998065;28;20048;-82
2022/08/25 05:01:06;;;;;;;6.93;3.80;;;;;;;-148.88;62.66;75228.84;4996905;28;20037;-82
2022/08/25 05:03:31;;;;;;;7.22;3.90;;;;;;;-148.88;62.63;75228.84;4995771;28;20090;-82
2022/08/25 05:05:57;;;;;;;5.35;3.97;;;;;;;-148.88;63.16;75222.75;4997100;28;20027;-82
2022/08/25 05:08:23;;;;;;;8.25;4.30;;;;;;;-148.88;63.37;75228.84;4998112;28;20032;-82
2022/08/25 05:10:49;;;;;;;6.50;3.90;;;;;;;-148.88;62.97;75228.84;5003933;28;20026;-84
2022/08/25 05:13:14;;;;;;;8.43;4.40;;;;;;;-148.88;63.11;75222.75;4996707;28;20515;-85
2022/08/25 05:15:49;;;;;;;6.85;3.92;;;;;;;-148.88;63.10;75216.66;4995557;28;20034;-85
2022/08/25 05:18:15;;;;;;;10.13;4.57;;;;;;;-148.88;63.29;75220.72;4993820;28;20397;-84
2022/08/25 05:20:40;;;;;;;7.38;4.18;;;;;;;-148.88;63.01;75210.56;4995084;28;20030;-85
2022/08/25 05:23:06;;;;;;;7.72;4.40;;;;;;;-148.88;63.20;75212.59;4994982;28;20185;-85
2022/08/25 05:25:31;;;;;;;10.18;4.30;;;;;;;-148.88;63.05;75208.53;4995374;28;20026;-85
2022/08/25 05:27:56;;;;;;;6.75;4.40;;;;;;;-148.88;63.30;75208.53;4993756;28;20023;-85
2022/08/25 05:30:22;;;;;;;13.95;4.55;;;;;;;-148.88;63.57;75208.53;4995263;28;20034;-84
2022/08/25 05:32:47;;;;;;;10.52;4.30;;;;;;;-148.88;63.48;75200.41;4996443;28;20033;-85
2022/08/25 05:35:12;;;;;;;14.93;4.68;;;;;;;-148.88;64.03;75204.47;4993490;28;20446;-85
2022/08/25 05:37:38;;;;;;;7.47;4.15;;;;;;;-148.88;64.13;75198.38;4993380;28;20030;-86
2022/08/25 05:40:07;;;;;;;8.23;4.30;;;;;;;-148.88;64.21;75188.22;4994737;28;20497;-85
2022/08/25 05:42:33;;;;;;;10.70;4.40;;;;;;;-148.88;63.89;75186.19;4993648;28;20392;-84
2022/08/25 05:44:58;;;;;;;13.48;4.43;;;;;;;-148.88;64.18;75186.19;4993327;28;20182;-85
2022/08/25 05:47:24;;;;;;;10.48;4.38;;;;;;;-148.88;64.13;75178.06;4994685;28;20022;-86
2022/08/25 05:49:49;;;;;;;12.05;4.70;;;;;;;-148.88;63.72;75169.94;4994656;28;20085;-84
2022/08/25 05:52:15;;;;;;;8.25;3.97;;;;;;;-148.88;63.75;75167.91;4994441;28;20023;-85
2022/08/25 05:54:40;;;;;;;9.50;4.20;;;;;;;-148.88;63.76;75161.81;4993391;28;20022;-85
2022/08/25 05:57:05;;;;;;;7.35;3.70;;;;;;;-148.88;63.73;75159.78;4994473;28;20363;-85
2022/08/25 05:59:31;;;;;;;8.07;4.63;;;;;;;-148.88;63.48;75147.59;4994159;28;20038;-85
2022/08/25 06:04:40;;;;;;;10.63;4.38;;;;;;;-148.88;62.27;75127.28;4994651;28;20037;-85
2022/08/25 06:07:06;;;;;;;10.15;3.75;;;;;;;-148.88;62.55;75119.16;4994200;28;20404;-85
2022/08/25 06:09:31;;;;;;;13.75;4.60;;;;;;;-148.88;62.15;75106.97;4994017;28;20034;-85
2022/08/25 06:11:57;;;;;;;7.72;4.20;;;;;;;-148.88;61.95;75098.84;4994266;28;20401;-85
2022/08/25 06:14:23;;;;;;;12.40;4.10;;;;;;;-148.88;61.52;75086.69;4992970;28;20023;-84
2022/08/25 06:16:50;;;;;;;13.48;4.07;;;;;;;-148.88;62.08;75090.72;4993860;28;20030;-85
2022/08/25 06:19:16;;;;;;;9.25;3.85;;;;;;;-148.88;61.63;75074.50;4992591;28;20026;-85
2022/08/25 06:21:41;;;;;;;6.57;3.80;;;;;;;-148.88;61.62;75068.41;4992495;28;20026;-85
2022/08/25 06:24:07;;;;;;;6.07;3.58;;;;;;;-148.88;60.51;75058.25;4994155;28;20027;-84
2022/08/25 06:26:33;;;;;;;5.90;3.53;;;;;;;-148.88;59.77;75039.97;4993735;28;20496;-85
2022/08/25 06:28:58;;;;;;;8.82;4.18;;;;;;;-148.88;59.73;75029.81;4993793;28;20034;-84
2022/08/25 06:31:24;;;;;;;9.68;4.25;;;;;;;-148.88;59.22;75017.63;4993762;28;20026;-85
2022/08/25 06:33:50;;;;;;;9.10;4.00;;;;;;;-148.88;59.28;75009.50;4992362;28;20073;-85
2022/08/25 06:36:15;;;;;;;9.43;4.47;;;;;;;-148.88;59.65;75005.44;4993910;28;20035;-85
2022/08/25 06:38:41;;;;;;;8.75;4.28;;;;;;;-148.88;59.54;74993.25;4993564;28;20053;-85
2022/08/25 06:41:09;;;;;;;12.20;4.40;;;;;;;-148.88;59.82;74985.13;4993431;28;20031;-85
2022/08/25 06:43:34;;;;;;;10.43;4.28;;;;;;;-148.88;59.76;74972.94;4992404;28;20033;-85
2022/08/25 06:46:11;;;;;;;13.88;4.10;;;;;;;-148.88;60.26;74966.84;4993585;28;20025;-85
2022/08/25 06:48:36;;;;;;;8.40;4.15;;;;;;;-148.88;60.54;74950.59;4993628;28;20477;-85
2022/08/25 06:51:10;;;;;;;9.57;4.05;;;;;;;-148.88;59.65;74948.56;4993980;28;20033;-85
2022/08/25 06:53:36;;;;;;;8.35;3.90;;;;;;;-148.88;59.65;74940.47;4993817;28;20030;-86
2022/08/25 06:56:02;;;;;;;7.05;3.78;;;;;;;-148.88;60.37;74938.44;4992117;28;20081;-85
2022/08/25 06:58:28;;;;;;;12.15;3.95;;;;;;;-148.88;60.16;74926.25;4993380;28;20022;-85
2022/08/25 07:00:54;;;;;;;6.78;3.80;;;;;;;-148.88;60.04;74916.09;4993624;28;20026;-85
2022/08/25 07:03:19;;;;;;;6.25;4.10;;;;;;;-148.88;60.63;74912.03;4993318;28;20029;-85
2022/08/25 07:05:55;;;;;;;8.63;4.00;;;;;;;-148.88;60.00;74895.78;4993376;28;20125;-85
2022/08/25 07:08:21;;;;;;;7.95;4.30;;;;;;;-148.88;60.53;74887.66;4996482;28;20022;-85
2022/08/25 07:10:46;;;;;;;11.60;3.60;;;;;;;-148.88;58.87;74869.38;4997514;28;20076;-86
2022/08/25 07:13:12;;;;;;;9.77;4.00;;;;;;;-148.88;59.23;74861.25;4997307;28;20023;-85
2022/08/25 07:15:39;;;;;;;8.10;4.20;;;;;;;-148.88;58.31;74842.97;4997456;28;20023;-85
2022/08/25 07:18:05;;;;;;;10.48;4.65;;;;;;;-148.88;59.07;74834.84;4995743;28;20026;-85
2022/08/25 07:20:33;;;;;;;14.23;4.38;;;;;;;-148.88;58.24;74816.56;4997242;28;20033;-85
2022/08/25 07:22:59;;;;;;;6.97;4.40;;;;;;;-148.88;58.47;74802.38;4996178;28;20105;-85
2022/08/25 07:25:24;;;;;;;9.18;3.85;;;;;;;-148.88;59.08;74790.19;4995833;28;20073;-84
2022/08/25 07:27:49;;;;;;;8.77;4.20;;;;;;;-148.88;58.37;74773.94;4995487;28;20029;-86
2022/08/25 07:30:16;;;;;;;8.43;4.07;;;;;;;-148.88;58.35;74745.50;4995831;28;20483;-85
2022/08/25 07:32:41;;;;;;;7.35;4.22;;;;;;;-148.88;58.43;74743.47;4995626;28;20479;-85
2022/08/25 07:35:15;;;;;;;8.65;4.22;;;;;;;-148.88;58.07;74725.19;4995725;28;20129;-85
2022/08/25 07:37:49;;;;;;;7.28;4.47;;;;;;;-148.88;57.85;74706.91;4995981;28;20026;-85
2022/08/25 07:40:21;;;;;;;7.78;4.28;;;;;;;-148.88;57.24;74684.59;4997012;28;20026;-85
2022/08/25 07:42:49;;;;;;;6.90;4.15;;;;;;;-148.88;58.54;74676.47;4995896;28;20026;-85
2022/08/25 07:45:15;;;;;;;6.90;4.40;;;;;;;-148.88;57.12;74654.13;4996903;28;20030;-84
2022/08/25 07:47:40;;;;;;;8.65;4.50;;;;;;;-148.88;57.15;74635.84;4996537;28;20076;-86
2022/08/25 07:50:08;;;;;;;8.68;4.57;;;;;;;-148.88;57.50;74627.72;4996554;28;20026;-86
2022/08/25 07:52:33;;;;;;;8.55;4.40;;;;;;;-148.88;58.34;74619.59;4996626;28;20022;-85
2022/08/25 07:54:59;;;;;;;8.05;4.70;;;;;;;-148.88;58.32;74607.41;4996764;28;20037;-85
2022/08/25 07:57:25;;;;;;;8.45;4.75;;;;;;;-148.88;58.17;74593.22;4996489;28;20033;-85
2022/08/25 07:59:51;;;;;;;8.93;4.78;;;;;;;-148.88;57.41;74566.81;4996459;28;20023;-86
2022/08/25 08:02:17;;;;;;;7.03;4.97;;;;;;;-148.88;57.28;74548.53;4995194;28;20076;-85
2022/08/25 08:04:45;;;;;;;8.48;5.03;;;;;;;-148.88;56.95;74516.03;4996592;28;20496;-85
2022/08/25 08:07:11;;;;;;;11.48;5.43;;;;;;;-148.88;56.60;74501.81;4994964;28;20029;-85
2022/08/25 08:09:36;;;;;;;8.50;5.25;;;;;;;-148.88;56.47;74485.59;4996341;28;20022;-85
2022/08/25 08:12:04;;;;;;;8.68;5.13;;;;;;;-148.88;55.85;74467.31;4994996;28;20396;-85
2022/08/25 08:14:29;;;;;;;9.23;5.32;;;;;;;-148.88;56.09;74444.97;4996649;28;20038;-85
2022/08/25 08:16:54;;;;;;;11.07;5.80;;;;;;;-148.88;56.23;74422.63;4996034;28;20026;-85
2022/08/25 08:19:21;;;;;;;9.00;5.82;;;;;;;-148.88;55.69;74412.47;4995709;28;20058;-85
2022/08/25 08:21:47;;;;;;;11.27;6.43;;;;;;;-148.88;55.33;74396.25;4996098;28;20394;-85
2022/08/25 08:24:13;;;;;;;10.00;6.40;;;;;;;-148.88;55.12;74392.19;4996270;28;20084;-85
2022/08/25 08:26:38;;;;;;;8.43;6.32;;;;;;;-148.88;55.00;74388.13;4994479;28;20022;-85
2022/08/25 08:29:03;;;;;;;12.07;6.45;;;;;;;-148.88;54.38;74371.88;4996300;28;20497;-85
2022/08/25 08:31:29;;;;;;;10.68;6.93;;;;;;;-148.88;54.32;74355.63;4994593;28;20395;-84
2022/08/25 08:33:56;;;;;;;11.38;6.70;;;;;;;-148.88;53.59;74343.44;4996169;28;20038;-84
2022/08/25 08:36:24;;;;;;;11.35;6.70;;;;;;;-148.88;53.63;74345.47;4995899;28;20030;-85
2022/08/25 08:38:50;;;;;;;10.90;6.72;;;;;;;-148.88;53.69;74319.09;4995825;28;20495;-86
2022/08/25 08:44:36;;;;;;;8.45;6.20;;;;;;;-148.88;54.25;74292.69;4996025;28;20559;-85
2022/08/25 08:47:19;;;;;;;10.57;6.90;;;;;;;-148.88;53.18;74258.16;4995945;28;20023;-85
2022/08/25 08:50:10;;;;;;;8.90;6.60;;;;;;;-148.88;52.76;74239.91;4996136;28;20260;-85
2022/08/25 08:53:02;;;;;;;8.90;6.28;;;;;;;-148.88;51.83;74219.59;4995903;28;20030;-85
2022/08/25 08:55:31;;;;;;;10.90;7.50;;;;;;;-148.88;51.62;74193.19;4996345;28;20018;-84
2022/08/25 08:58:01;;;;;;;10.05;6.20;;;;;;;-148.88;51.51;74170.84;4995652;28;20037;-85
2022/08/25 09:00:28;;;;;;;13.63;6.75;;;;;;;-148.88;50.21;74174.91;4994156;28;20057;-85
2022/08/25 09:03:01;;;;;;;10.02;6.35;;;;;;;-148.88;49.65;74168.84;4994102;28;20049;-85
2022/08/25 09:05:28;;;;;;;;;;;;;;;-148.88;50.05;74160.72;4995880;28;20069;-85
2022/08/25 09:07:57;;;;;;;11.00;6.35;;;;;;;-148.88;50.28;74136.34;4995282;28;20041;-85
2022/08/25 09:10:25;;;;;;;12.60;6.18;;;;;;;-148.88;50.03;74128.22;4995675;28;20032;-86
2022/08/25 09:13:01;;;;;;;9.63;6.03;;;;;;;-148.88;48.86;74109.94;4995401;28;20049;-85
2022/08/25 09:18:53;;;;;;;9.25;6.47;;;;;;;-148.88;47.70;74042.94;4995024;28;20161;-86
2022/08/25 09:21:32;;;;;;;11.25;6.10;;;;;;;-148.88;46.77;74034.81;4993651;28;20029;-86
2022/08/25 09:23:58;;;;;;;11.20;6.85;;;;;;;-148.88;46.29;74030.75;4993708;28;20029;-86
2022/08/25 09:26:31;;;;;;;9.13;6.20;;;;;;;-148.88;46.57;74006.41;4994000;28;20022;-85
2022/08/25 09:29:12;;;;;;;;;;;;;;;-148.88;46.50;73984.06;4994323;28;20477;-85
2022/08/25 09:31:40;;;;;;;11.73;6.82;;;;;;;-148.88;45.20;73969.84;4994402;28;19909;-85
2022/08/25 09:34:11;;;;;;;8.93;6.57;;;;;;;-148.88;44.96;73961.72;4994613;28;20038;-86
2022/08/25 09:36:37;;;;;;;9.10;6.00;;;;;;;-148.88;44.61;73929.25;4993306;28;20076;-85
2022/08/25 09:39:03;;;;;;;10.52;6.40;;;;;;;-148.88;44.94;73921.13;4994530;28;20144;-85
2022/08/25 09:41:48;;;;;;;11.10;6.38;;;;;;;-148.88;44.86;73888.66;4993349;28;20027;-83
2022/08/25 09:44:30;;;;;;;10.32;6.30;;;;;;;-148.88;44.70;73878.50;4993373;28;20048;-83
2022/08/25 09:46:56;;;;;;;9.57;6.50;;;;;;;-148.88;43.90;73848.03;4995137;28;20496;-84
2022/08/25 09:49:40;;;;;;;11.43;5.88;;;;;;;-148.88;42.91;73825.72;4993497;28;20030;-82
2022/08/25 09:52:17;;;;;;;9.60;6.38;;;;;;;-148.88;42.19;73807.44;4994821;28;20404;-83
2022/08/25 09:54:43;;;;;;;9.43;6.03;;;;;;;-148.88;42.40;73805.41;4993867;28;20493;-83
2022/08/25 09:57:27;;;;;;;8.55;6.13;;;;;;;-148.88;41.96;73791.19;4994298;28;20038;-83
2022/08/25 09:59:56;;;;;;;10.85;6.25;;;;;;;-148.88;42.05;73760.75;4994443;28;20055;-83
2022/08/25 10:02:28;;;;;;;10.95;6.55;;;;;;;-148.88;41.35;73750.59;4994158;28;20444;-83
2022/08/25 10:04:55;;;;;;;11.38;6.57;;;;;;;-148.88;40.90;73746.53;4993586;28;20048;-83
2022/08/25 10:07:26;;;;;;;11.13;6.30;;;;;;;-148.88;40.55;73718.09;4994292;28;20041;-85
2022/08/25 10:09:55;;;;;;;8.50;6.05;;;;;;;-148.88;41.25;73718.09;4993839;28;20125;-85
2022/08/25 10:12:38;;;;;;;11.57;6.60;;;;;;;-148.88;40.20;73720.13;4994012;28;20033;-85
2022/08/25 10:15:18;;;;;;;10.57;7.10;;;;;;;-148.88;40.64;73689.69;4994154;28;20022;-85
2022/08/25 10:17:43;;;;;;;9.43;6.82;;;;;;;-148.88;40.36;73683.59;4994027;28;20023;-84
2022/08/25 10:20:08;;;;;;;10.55;6.82;;;;;;;-148.88;39.87;73653.16;4992939;28;20026;-85
2022/08/25 10:22:34;;;;;;;10.07;6.80;;;;;;;-148.88;39.76;73653.16;4994260;28;20033;-85
2022/08/25 10:25:01;;;;;;;10.77;6.32;;;;;;;-148.88;40.06;73612.53;4994331;28;20252;-85
2022/08/25 10:27:38;;;;;;;8.55;6.25;;;;;;;-148.88;39.35;73620.66;4993003;28;20022;-85
2022/08/25 10:30:03;;;;;;;9.82;6.68;;;;;;;-148.88;39.03;73614.56;4992677;28;20121;-84
2022/08/25 10:32:59;;;;;;;10.20;7.60;;;;;;;-148.88;40.36;73582.09;4993834;28;20054;-85
2022/08/25 10:35:30;;;;;;;8.77;7.15;;;;;;;-148.88;38.86;73549.59;4994631;28;20045;-86
2022/08/25 10:38:19;;;;;;;10.98;7.18;;;;;;;-148.88;38.54;73559.75;4994509;28;20022;-84
2022/08/25 10:40:59;;;;;;;10.13;7.20;;;;;;;-148.88;38.44;73515.09;4993435;28;20096;-85
2022/08/25 10:43:39;;;;;;;14.07;7.10;;;;;;;-148.88;38.48;73478.56;4993291;28;20030;-85
2022/08/25 10:46:44;;;;;;;12.38;7.45;;;;;;;-148.88;37.36;73486.69;4992417;28;20029;-85
2022/08/25 10:49:26;;;;;;;8.77;6.57;;;;;;;-148.88;36.77;73480.59;4993612;28;20022;-84
2022/08/25 10:52:00;;;;;;;10.63;7.70;;;;;;;-148.88;37.42;73527.28;4993974;28;20085;-84
2022/08/25 10:54:37;;;;;;;;;;;;;;;-148.88;37.82;73555.69;4992881;28;20030;-85
2022/08/25 10:57:29;;;;;;;11.25;7.10;;;;;;;-148.88;38.02;73513.06;4992908;28;19918;-85
2022/08/25 10:59:57;;;;;;;8.23;7.22;;;;;;;-148.88;37.47;73539.47;4992736;28;20034;-84
2022/08/25 11:02:50;;;;;;;10.95;7.10;;;;;;;-148.88;37.80;73539.47;4993417;28;20046;-85
2022/08/25 11:05:24;;;;;;;11.43;7.47;;;;;;;-148.88;37.34;73604.41;4976285;28;20033;-85
2022/08/25 11:07:56;;;;;;;8.68;6.45;;;;;;;-148.88;37.81;73555.69;4993932;28;20489;-84
2022/08/25 11:10:41;;;;;;;14.38;7.45;;;;;;;-148.88;38.31;73533.38;4993333;28;20041;-85
2022/08/25 11:13:19;;;;;;;8.90;6.75;;;;;;;-148.88;37.84;73580.06;4992351;28;20026;-85
2022/08/25 11:15:53;;;;;;;12.10;7.28;;;;;;;-148.88;38.26;73561.78;4991832;28;20106;-85
2022/08/25 11:18:19;;;;;;;12.68;7.30;;;;;;;-148.88;37.96;73539.47;4993318;28;20061;-85
2022/08/25 11:21:06;;;;;;;9.93;6.65;;;;;;;-148.88;38.10;73502.91;4991747;28;20045;-85
2022/08/25 11:23:40;;;;;;;12.85;7.50;;;;;;;-148.88;37.10;73468.41;4991927;28;20026;-85
2022/08/25 11:26:10;;;;;;;9.75;6.57;;;;;;;-148.88;36.57;73435.94;4993923;28;20026;-85
2022/08/25 11:28:52;;;;;;;8.45;7.13;;;;;;;-148.88;36.73;73403.44;4993015;28;20409;-85
2022/08/25 11:31:20;;;;;;;10.55;6.95;;;;;;;-148.88;35.82;73450.13;4991913;28;20462;-85
2022/08/25 11:33:48;;;;;;;9.57;6.80;;;;;;;-148.88;36.92;73429.84;4992472;28;20512;-85
2022/08/25 11:36:29;;;;;;;8.70;7.30;;;;;;;-148.88;36.47;73405.47;4991768;28;20034;-85